Thompsonville, Illinois
Current Conditions -  °F | °C
As of 3:35 AM on Thursday 27 Nov 2014 (Local Time) from KHSB Reporting Station
Overcast Overcast  
Wind Chill: 25°   Ceiling: 3300
Heat Index: 32°   Visibility: 7mi
Dew Point: 32°   Wind: 8mph
Humidity: 99%   Direction: 330°NNW
Pressure: 30.29"   Gusts: NA
Location:  37.92°N, 88.76°W
Report Text: KHSB 270935Z AUTO 33007KT 7SM SCT027 OVC033 00/00 A3029 RMK AO2 T00011001
Loading
Personal Weather Stations






























Interactive Weather Map New forecast layout! Learn more

10-Day Weather Forecast

Advertisements
Track Severe Weather on mobile